createdAt,value
2023-03-29T00:00:14.177Z,74.86
2023-03-29T00:02:43.729Z,74.42
2023-03-29T00:05:12.386Z,74.45
2023-03-29T00:07:39.728Z,74.50
2023-03-29T00:10:10.285Z,74.89
2023-03-29T00:12:41.629Z,74.71
2023-03-29T00:15:09.772Z,74.50
2023-03-29T00:17:37.527Z,74.72
2023-03-29T00:20:10.349Z,74.25
2023-03-29T00:22:40.152Z,74.55
2023-03-29T00:25:11.538Z,74.77
2023-03-29T00:27:39.454Z,74.59
2023-03-29T00:30:10.217Z,73.81
2023-03-29T00:32:38.082Z,74.09
2023-03-29T00:35:07.434Z,74.33
2023-03-29T00:37:35.079Z,74.16
2023-03-29T00:40:05.027Z,74.10
2023-03-29T00:42:32.595Z,74.74
2023-03-29T00:45:18.924Z,73.91
2023-03-29T00:47:57.922Z,73.74
2023-03-29T00:50:36.356Z,74.34
2023-03-29T00:53:13.094Z,73.83
2023-03-29T00:55:59.518Z,74.14
2023-03-29T00:58:51.920Z,73.71
2023-03-29T01:01:28.446Z,73.73
2023-03-29T01:04:18.000Z,72.76
2023-03-29T01:06:58.785Z,72.91
2023-03-29T01:09:30.407Z,73.50
2023-03-29T01:12:05.532Z,72.79
2023-03-29T01:14:45.418Z,73.34
2023-03-29T01:17:13.066Z,72.36
2023-03-29T01:19:59.354Z,72.37
2023-03-29T01:23:04.386Z,72.66
2023-03-29T01:25:37.404Z,71.90
2023-03-29T01:28:22.675Z,72.34
2023-03-29T01:31:03.908Z,72.16
2023-03-29T01:33:48.861Z,71.85
2023-03-29T01:36:27.576Z,72.08
2023-03-29T01:39:03.412Z,72.28
2023-03-29T01:41:58.271Z,71.87
2023-03-29T01:44:45.559Z,71.83
2023-03-29T01:47:33.127Z,71.34
2023-03-29T01:50:17.929Z,71.79
2023-03-29T01:53:06.063Z,71.90
2023-03-29T01:55:48.033Z,71.16
2023-03-29T01:58:18.155Z,71.60
2023-03-29T02:00:49.242Z,71.59
2023-03-29T02:03:19.889Z,71.63
2023-03-29T02:05:48.351Z,71.28
2023-03-29T02:08:18.447Z,71.70
2023-03-29T02:10:46.636Z,72.00
2023-03-29T02:13:14.261Z,71.10
2023-03-29T02:15:44.457Z,71.60
2023-03-29T02:18:16.430Z,72.15
2023-03-29T02:20:48.726Z,71.85
2023-03-29T02:23:27.370Z,71.93
2023-03-29T02:25:57.017Z,72.20
2023-03-29T02:28:28.256Z,72.53
2023-03-29T02:31:07.990Z,72.80
2023-03-29T02:33:53.134Z,73.03
2023-03-29T02:36:47.453Z,72.32
2023-03-29T02:39:17.847Z,73.04
2023-03-29T02:41:50.558Z,73.12
2023-03-29T02:44:27.100Z,73.15
2023-03-29T02:47:03.194Z,73.22
2023-03-29T02:49:30.924Z,73.44
2023-03-29T02:52:09.180Z,72.74
2023-03-29T02:54:43.437Z,73.30
2023-03-29T02:57:12.396Z,72.75
2023-03-29T02:59:41.039Z,72.63
2023-03-29T03:02:09.600Z,71.90
2023-03-29T03:04:37.702Z,72.00
2023-03-29T03:07:05.390Z,72.09
2023-03-29T03:09:32.967Z,71.89
2023-03-29T03:12:00.501Z,72.72
2023-03-29T03:14:28.317Z,72.82
2023-03-29T03:16:58.495Z,72.56
2023-03-29T03:19:25.975Z,72.14
2023-03-29T03:21:53.364Z,71.58
2023-03-29T03:24:22.319Z,72.29
2023-03-29T03:26:50.064Z,72.19
2023-03-29T03:29:19.309Z,71.69
2023-03-29T03:32:19.294Z,72.49
2023-03-29T03:34:55.280Z,71.40
2023-03-29T03:37:25.892Z,71.56
2023-03-29T03:39:54.005Z,71.92
2023-03-29T03:42:21.683Z,71.37
2023-03-29T03:44:50.022Z,70.78
2023-03-29T03:47:51.519Z,70.93
2023-03-29T03:50:38.288Z,71.80
2023-03-29T03:53:07.252Z,71.28
2023-03-29T03:55:59.038Z,71.29
2023-03-29T03:58:32.482Z,71.04
2023-03-29T04:01:00.234Z,71.40
2023-03-29T04:03:39.277Z,70.80
2023-03-29T04:06:09.841Z,70.60
2023-03-29T04:09:06.212Z,71.13
2023-03-29T04:11:42.970Z,70.70
2023-03-29T04:14:11.717Z,71.04
2023-03-29T04:16:57.794Z,71.62
2023-03-29T04:20:12.374Z,72.03
2023-03-29T04:22:41.353Z,71.50
2023-03-29T04:25:10.494Z,71.17
2023-03-29T04:28:13.342Z,71.23
2023-03-29T04:30:49.006Z,71.24
2023-03-29T04:33:34.734Z,71.25
2023-03-29T04:36:02.246Z,71.34
2023-03-29T04:38:36.122Z,71.43
2023-03-29T04:41:05.045Z,71.33
2023-03-29T04:43:52.199Z,71.06
2023-03-29T04:46:28.533Z,71.10
2023-03-29T04:49:14.720Z,70.86
2023-03-29T04:51:46.421Z,70.53
2023-03-29T04:54:19.086Z,70.51
2023-03-29T04:57:09.198Z,69.97
2023-03-29T04:59:46.917Z,69.88
2023-03-29T05:02:37.032Z,69.52
2023-03-29T05:05:05.085Z,69.50
2023-03-29T05:07:32.952Z,68.89
2023-03-29T05:10:00.287Z,67.91
2023-03-29T05:12:27.837Z,67.01
2023-03-29T05:14:57.855Z,66.44
2023-03-29T05:17:27.470Z,67.05
2023-03-29T05:20:01.405Z,64.83
2023-03-29T05:22:29.769Z,65.24
2023-03-29T05:24:57.601Z,65.73
2023-03-29T05:27:25.498Z,65.64
2023-03-29T05:30:01.805Z,65.03
2023-03-29T05:32:47.023Z,65.12
2023-03-29T05:35:17.955Z,65.19
2023-03-29T05:37:47.384Z,66.06
2023-03-29T05:40:15.228Z,64.48
2023-03-29T05:43:12.211Z,65.28
2023-03-29T05:45:39.969Z,67.20
2023-03-29T05:48:07.487Z,56.27
2023-03-29T05:50:37.223Z,50.04
2023-03-29T05:53:05.835Z,50.62
2023-03-29T05:55:34.070Z,49.62
2023-03-29T05:58:01.486Z,46.31
2023-03-29T06:00:36.845Z,41.49
2023-03-29T06:03:25.469Z,43.49
2023-03-29T06:06:03.921Z,44.90
2023-03-29T06:08:35.027Z,43.40
2023-03-29T06:11:13.512Z,40.66
2023-03-29T06:14:16.342Z,36.31
2023-03-29T06:16:51.592Z,32.76
2023-03-29T06:19:19.321Z,34.89
2023-03-29T06:21:47.861Z,34.48
2023-03-29T06:24:20.846Z,35.37
2023-03-29T06:26:54.656Z,38.95
2023-03-29T06:29:22.900Z,37.43
2023-03-29T06:31:50.922Z,36.25
2023-03-29T06:34:38.692Z,32.74
2023-03-29T06:37:31.938Z,30.08
2023-03-29T06:40:19.264Z,27.93
2023-03-29T06:42:48.876Z,28.60
2023-03-29T06:45:20.625Z,28.26
2023-03-29T06:47:51.094Z,28.20
2023-03-29T06:50:19.643Z,26.24
2023-03-29T06:52:54.277Z,26.87
2023-03-29T06:55:22.820Z,27.54
2023-03-29T06:57:50.934Z,26.39
2023-03-29T07:00:27.950Z,27.06
2023-03-29T07:03:09.977Z,27.33
2023-03-29T07:05:40.811Z,27.76
2023-03-29T07:08:13.877Z,26.84
2023-03-29T07:10:59.434Z,24.71
2023-03-29T07:13:46.307Z,24.99
2023-03-29T07:16:19.334Z,25.26
2023-03-29T07:19:22.680Z,24.16
2023-03-29T07:21:56.160Z,22.88
2023-03-29T07:24:43.942Z,24.09
2023-03-29T07:28:11.406Z,23.75
2023-03-29T07:30:39.448Z,24.11
2023-03-29T07:33:13.652Z,24.84
2023-03-29T07:35:53.665Z,25.04
2023-03-29T07:38:21.462Z,25.24
2023-03-29T07:40:55.417Z,24.85
2023-03-29T07:43:31.806Z,23.27
2023-03-29T07:46:04.884Z,24.05
2023-03-29T07:48:37.135Z,23.98
2023-03-29T07:51:07.936Z,24.32
2023-03-29T07:54:06.490Z,25.26
2023-03-29T07:56:48.423Z,24.74
2023-03-29T07:59:16.606Z,25.72
2023-03-29T08:01:46.895Z,23.49
2023-03-29T08:04:26.604Z,24.74
2023-03-29T08:07:13.810Z,24.02
2023-03-29T08:10:00.293Z,25.44
2023-03-29T08:12:52.352Z,23.79
2023-03-29T08:15:23.908Z,23.64
2023-03-29T08:17:51.722Z,24.68
2023-03-29T08:20:20.055Z,24.92
2023-03-29T08:22:52.279Z,25.46
2023-03-29T08:25:23.034Z,26.45
2023-03-29T08:27:53.596Z,27.26
2023-03-29T08:30:42.139Z,29.13
2023-03-29T08:33:09.956Z,30.38
2023-03-29T08:35:37.667Z,29.61
2023-03-29T08:38:19.295Z,29.61
2023-03-29T08:40:49.582Z,29.80
2023-03-29T08:43:42.822Z,31.16
2023-03-29T08:46:51.949Z,29.66
2023-03-29T08:49:30.773Z,32.05
2023-03-29T08:52:04.841Z,31.05
2023-03-29T08:54:43.633Z,32.01
2023-03-29T08:57:30.662Z,35.04
2023-03-29T09:00:10.609Z,32.20
2023-03-29T09:02:43.542Z,32.20
2023-03-29T09:05:25.917Z,30.93
2023-03-29T09:08:18.281Z,31.08
2023-03-29T09:11:18.852Z,33.40
2023-03-29T09:14:16.394Z,32.51
2023-03-29T09:16:59.252Z,30.50
2023-03-29T09:19:52.555Z,31.52
2023-03-29T09:22:57.757Z,31.25
2023-03-29T09:26:20.838Z,31.87
2023-03-29T09:29:58.292Z,30.46
2023-03-29T09:32:54.680Z,31.06
2023-03-29T09:36:30.155Z,31.99
2023-03-29T09:38:57.970Z,30.28
2023-03-29T09:41:59.406Z,29.85
2023-03-29T09:44:41.547Z,30.25
2023-03-29T09:47:27.158Z,31.96
2023-03-29T09:50:04.385Z,34.30
2023-03-29T09:52:32.872Z,31.46
2023-03-29T09:55:18.779Z,31.37
2023-03-29T09:58:18.131Z,32.37
2023-03-29T10:00:51.101Z,31.23
2023-03-29T10:03:27.361Z,32.82
2023-03-29T10:06:12.264Z,33.69
2023-03-29T10:08:52.902Z,32.35
2023-03-29T10:11:32.965Z,31.78
2023-03-29T10:14:12.361Z,31.49
2023-03-29T10:16:46.407Z,33.57
2023-03-29T10:19:29.179Z,31.68
2023-03-29T10:22:01.729Z,30.48
2023-03-29T10:24:29.219Z,33.27
2023-03-29T10:27:10.929Z,29.25
2023-03-29T10:29:42.573Z,26.86
2023-03-29T10:32:22.955Z,29.06
2023-03-29T10:34:53.650Z,30.70
2023-03-29T10:37:22.999Z,29.70
2023-03-29T10:39:51.916Z,31.56
2023-03-29T10:42:24.526Z,30.26
2023-03-29T10:44:58.619Z,29.37
2023-03-29T10:47:31.640Z,30.62
2023-03-29T10:49:59.381Z,32.36
2023-03-29T10:52:29.220Z,32.67
2023-03-29T10:54:57.217Z,31.30
2023-03-29T10:58:00.150Z,29.39
2023-03-29T11:00:42.750Z,31.17
2023-03-29T11:03:50.944Z,28.11
2023-03-29T11:06:43.043Z,30.78
2023-03-29T11:09:54.845Z,33.00
2023-03-29T11:13:11.913Z,30.03
2023-03-29T11:15:52.228Z,32.23
2023-03-29T11:18:49.836Z,34.18
2023-03-29T11:21:36.035Z,33.06
2023-03-29T11:24:42.995Z,31.15
2023-03-29T11:27:28.733Z,32.64
2023-03-29T11:30:27.373Z,28.32
2023-03-29T11:33:31.821Z,29.87
2023-03-29T11:36:32.360Z,31.85
2023-03-29T11:39:11.398Z,32.43
2023-03-29T11:41:45.030Z,32.48
2023-03-29T11:44:24.669Z,32.82
2023-03-29T11:47:02.110Z,31.53
2023-03-29T11:49:38.345Z,33.01
2023-03-29T11:52:29.659Z,30.84
2023-03-29T11:55:12.631Z,32.66
2023-03-29T11:57:54.015Z,32.45
2023-03-29T12:00:41.036Z,31.16
2023-03-29T12:03:38.667Z,32.22
2023-03-29T12:06:14.180Z,29.61
2023-03-29T12:08:48.011Z,31.49
2023-03-29T12:11:40.439Z,32.22
2023-03-29T12:14:27.951Z,32.71
2023-03-29T12:17:09.242Z,33.02
2023-03-29T12:20:15.243Z,31.90
2023-03-29T12:22:51.079Z,31.50
2023-03-29T12:25:37.465Z,31.54
2023-03-29T12:28:36.717Z,32.53
2023-03-29T12:31:51.603Z,31.50
2023-03-29T12:34:50.243Z,34.37
2023-03-29T12:38:25.234Z,33.11
2023-03-29T12:41:23.421Z,34.04
2023-03-29T12:44:04.677Z,31.96
2023-03-29T12:47:00.408Z,31.08
2023-03-29T12:49:33.977Z,30.67
2023-03-29T12:52:22.608Z,31.77
2023-03-29T12:54:59.840Z,33.64
2023-03-29T12:57:45.093Z,33.77
2023-03-29T13:00:26.002Z,33.21
2023-03-29T13:03:29.159Z,35.27
2023-03-29T13:06:09.015Z,33.63
2023-03-29T13:08:44.977Z,32.08
2023-03-29T13:11:41.401Z,35.75
2023-03-29T13:14:19.249Z,34.20
2023-03-29T13:16:47.880Z,33.28
2023-03-29T13:19:26.826Z,35.56
2023-03-29T13:22:06.834Z,34.73
2023-03-29T13:25:38.688Z,33.94
2023-03-29T13:28:37.073Z,34.59
2023-03-29T13:31:36.180Z,33.99
2023-03-29T13:34:31.208Z,35.01
2023-03-29T13:37:08.471Z,35.31
2023-03-29T13:39:37.381Z,35.00
2023-03-29T13:42:34.310Z,34.54
2023-03-29T13:45:23.162Z,34.42
2023-03-29T13:48:22.968Z,34.17
2023-03-29T13:51:07.999Z,33.72
2023-03-29T13:53:44.181Z,33.35
2023-03-29T13:56:23.457Z,31.69
2023-03-29T13:59:05.653Z,32.78
2023-03-29T14:01:47.069Z,32.75
2023-03-29T14:04:24.788Z,32.12
2023-03-29T14:06:56.512Z,33.73
2023-03-29T14:09:32.892Z,31.01
2023-03-29T14:12:01.139Z,32.86
2023-03-29T14:14:32.709Z,32.26
2023-03-29T14:17:01.351Z,31.29
2023-03-29T14:19:36.315Z,33.50
2023-03-29T14:22:13.790Z,34.42
2023-03-29T14:24:56.879Z,32.80
2023-03-29T14:27:24.613Z,33.05
2023-03-29T14:29:52.385Z,33.53
2023-03-29T14:32:31.681Z,33.48
2023-03-29T14:35:00.775Z,34.16
2023-03-29T14:37:30.121Z,32.84
2023-03-29T14:39:59.244Z,35.53
2023-03-29T14:42:28.952Z,36.05
2023-03-29T14:45:06.055Z,36.85
2023-03-29T14:47:34.360Z,37.17
2023-03-29T14:50:03.913Z,37.60
2023-03-29T14:52:32.390Z,38.11
2023-03-29T14:55:02.330Z,38.29
2023-03-29T14:57:36.501Z,37.70
2023-03-29T15:00:30.172Z,38.83
2023-03-29T15:03:02.987Z,39.18
2023-03-29T15:05:41.191Z,39.60
2023-03-29T15:08:34.121Z,38.84
2023-03-29T15:11:03.149Z,38.27
2023-03-29T15:13:31.123Z,38.46
2023-03-29T15:16:04.436Z,39.11
2023-03-29T15:18:40.992Z,38.93
2023-03-29T15:21:11.318Z,38.80
2023-03-29T15:23:48.266Z,39.96
2023-03-29T15:26:23.338Z,41.12
2023-03-29T15:29:03.045Z,41.50
2023-03-29T15:31:37.061Z,41.20
2023-03-29T15:34:25.907Z,42.13
2023-03-29T15:36:54.293Z,42.45
2023-03-29T15:39:22.035Z,42.89
2023-03-29T15:41:52.691Z,43.02
2023-03-29T15:44:33.444Z,43.23
2023-03-29T15:47:00.985Z,42.50
2023-03-29T15:49:29.220Z,43.32
2023-03-29T15:51:56.734Z,43.69
2023-03-29T15:54:24.961Z,43.42
2023-03-29T15:57:07.332Z,44.68
2023-03-29T15:59:36.379Z,43.47
2023-03-29T16:02:05.154Z,44.34
2023-03-29T16:04:32.598Z,45.39
2023-03-29T16:07:01.359Z,44.89
2023-03-29T16:09:29.446Z,45.33
2023-03-29T16:11:56.880Z,46.32
2023-03-29T16:14:34.022Z,46.09
2023-03-29T16:17:03.354Z,46.28
2023-03-29T16:19:32.777Z,46.90
2023-03-29T16:22:07.319Z,47.16
2023-03-29T16:24:35.857Z,47.41
2023-03-29T16:27:04.371Z,47.56
2023-03-29T16:29:31.961Z,47.42
2023-03-29T16:31:59.858Z,47.24
2023-03-29T16:34:27.518Z,47.06
2023-03-29T16:36:55.007Z,47.63
2023-03-29T16:39:25.448Z,47.20
2023-03-29T16:41:52.904Z,48.19
2023-03-29T16:44:25.713Z,48.25
2023-03-29T16:46:58.449Z,48.63
2023-03-29T16:49:26.074Z,49.47
2023-03-29T16:51:53.521Z,49.05
2023-03-29T16:54:21.347Z,48.21
2023-03-29T16:56:48.924Z,48.47
2023-03-29T16:59:16.676Z,49.40
2023-03-29T17:01:44.442Z,49.29
2023-03-29T17:04:11.911Z,49.07
2023-03-29T17:06:39.268Z,49.52
2023-03-29T17:09:07.382Z,49.76
2023-03-29T17:11:35.235Z,49.65
2023-03-29T17:14:03.202Z,49.94
2023-03-29T17:16:30.789Z,50.46
2023-03-29T17:19:02.385Z,50.53
2023-03-29T17:21:30.041Z,50.94
2023-03-29T17:23:57.499Z,51.25
2023-03-29T17:26:24.944Z,51.19
2023-03-29T17:28:52.352Z,51.17
2023-03-29T17:31:19.930Z,51.39
2023-03-29T17:33:47.682Z,50.97
2023-03-29T17:36:15.878Z,51.06
2023-03-29T17:38:43.339Z,51.30
2023-03-29T17:41:11.154Z,51.17
2023-03-29T17:43:38.579Z,51.37
2023-03-29T17:46:06.579Z,51.89
2023-03-29T17:48:34.180Z,51.18
2023-03-29T17:51:01.645Z,50.52
2023-03-29T17:53:29.040Z,51.02
2023-03-29T17:55:56.428Z,51.64
2023-03-29T17:58:24.117Z,52.62
2023-03-29T18:00:51.560Z,52.76
2023-03-29T18:03:19.054Z,53.32
2023-03-29T18:05:46.802Z,52.99
2023-03-29T18:08:15.052Z,53.15
2023-03-29T18:10:43.112Z,53.80
2023-03-29T18:13:13.893Z,54.22
2023-03-29T18:15:42.142Z,54.20
2023-03-29T18:18:09.596Z,53.63
2023-03-29T18:20:37.344Z,53.80
2023-03-29T18:23:04.797Z,53.40
2023-03-29T18:25:32.190Z,53.23
2023-03-29T18:27:59.580Z,53.22
2023-03-29T18:30:27.142Z,53.31
2023-03-29T18:32:54.675Z,52.90
2023-03-29T18:35:22.551Z,52.03
2023-03-29T18:37:50.061Z,52.50
2023-03-29T18:40:20.497Z,52.16
2023-03-29T18:42:48.024Z,52.52
2023-03-29T18:45:16.123Z,52.18
2023-03-29T18:47:43.904Z,53.47
2023-03-29T18:50:13.290Z,54.81
2023-03-29T18:52:40.870Z,54.75
2023-03-29T18:55:08.413Z,56.82
2023-03-29T18:57:36.177Z,55.69
2023-03-29T19:00:10.561Z,56.20
2023-03-29T19:02:40.028Z,54.53
2023-03-29T19:05:08.906Z,53.85
2023-03-29T19:07:37.193Z,54.84
2023-03-29T19:10:07.041Z,54.70
2023-03-29T19:12:35.299Z,54.58
2023-03-29T19:15:02.952Z,53.93
2023-03-29T19:17:30.806Z,54.06
2023-03-29T19:19:58.435Z,53.84
2023-03-29T19:22:26.718Z,54.36
2023-03-29T19:24:54.190Z,54.20
2023-03-29T19:27:21.670Z,54.49
2023-03-29T19:29:49.642Z,54.23
2023-03-29T19:32:17.355Z,54.54
2023-03-29T19:34:44.849Z,55.16
2023-03-29T19:37:12.207Z,55.13
2023-03-29T19:39:41.493Z,55.14
2023-03-29T19:42:10.264Z,54.60
2023-03-29T19:44:38.440Z,55.20
2023-03-29T19:47:06.027Z,54.82
2023-03-29T19:49:38.271Z,53.70
2023-03-29T19:52:06.347Z,56.03
2023-03-29T19:54:34.139Z,56.13
2023-03-29T19:57:02.885Z,55.50
2023-03-29T19:59:31.511Z,55.68
2023-03-29T20:01:59.308Z,57.15
2023-03-29T20:04:28.827Z,57.68
2023-03-29T20:06:57.624Z,58.28
2023-03-29T20:09:25.472Z,59.32
2023-03-29T20:11:52.881Z,58.60
2023-03-29T20:14:20.363Z,57.68
2023-03-29T20:16:50.473Z,57.19
2023-03-29T20:19:18.766Z,56.66
2023-03-29T20:21:46.179Z,56.95
2023-03-29T20:24:13.607Z,58.23
2023-03-29T20:26:41.118Z,56.09
2023-03-29T20:29:08.722Z,56.17
2023-03-29T20:31:36.301Z,58.67
2023-03-29T20:34:03.773Z,58.63
2023-03-29T20:36:31.704Z,58.68
2023-03-29T20:39:00.256Z,58.80
2023-03-29T20:41:27.653Z,59.44
2023-03-29T20:44:02.975Z,59.08
2023-03-29T20:46:33.362Z,59.93
2023-03-29T20:49:07.421Z,61.43
2023-03-29T20:51:35.891Z,60.94
2023-03-29T20:54:07.730Z,61.17
2023-03-29T20:56:39.872Z,60.21
2023-03-29T20:59:10.935Z,60.20
2023-03-29T21:01:42.430Z,62.42
2023-03-29T21:04:10.972Z,62.94
2023-03-29T21:06:41.780Z,62.32
2023-03-29T21:09:09.170Z,62.19
2023-03-29T21:11:36.619Z,62.44
2023-03-29T21:14:04.677Z,62.42
2023-03-29T21:16:32.317Z,62.42
2023-03-29T21:18:59.711Z,62.63
2023-03-29T21:21:27.198Z,63.80
2023-03-29T21:23:54.578Z,62.51
2023-03-29T21:26:22.889Z,62.22
2023-03-29T21:28:50.377Z,61.57
2023-03-29T21:31:17.933Z,60.96
2023-03-29T21:33:45.478Z,60.87
2023-03-29T21:36:12.961Z,60.37
2023-03-29T21:38:40.488Z,60.07
2023-03-29T21:41:12.071Z,59.37
2023-03-29T21:43:40.402Z,59.15
2023-03-29T21:46:09.400Z,60.61
2023-03-29T21:48:37.406Z,61.08
2023-03-29T21:51:06.638Z,60.14
2023-03-29T21:53:34.938Z,59.38
2023-03-29T21:56:02.762Z,59.05
2023-03-29T21:58:30.358Z,58.51
2023-03-29T22:00:57.930Z,58.37
2023-03-29T22:03:25.857Z,58.82
2023-03-29T22:06:03.310Z,59.30
2023-03-29T22:08:31.379Z,59.19
2023-03-29T22:11:08.180Z,58.87
2023-03-29T22:13:36.069Z,59.18
2023-03-29T22:16:05.142Z,59.50
2023-03-29T22:18:43.354Z,59.49
2023-03-29T22:21:22.635Z,60.28
2023-03-29T22:23:53.430Z,59.39
2023-03-29T22:26:27.594Z,59.72
2023-03-29T22:28:56.810Z,59.61
2023-03-29T22:31:28.684Z,59.93
2023-03-29T22:33:56.482Z,60.53
2023-03-29T22:36:31.112Z,61.21
2023-03-29T22:38:58.723Z,62.50
2023-03-29T22:41:28.056Z,62.15
2023-03-29T22:43:58.520Z,61.63
2023-03-29T22:46:26.436Z,61.74
2023-03-29T22:48:54.175Z,61.72
2023-03-29T22:51:21.805Z,61.82
2023-03-29T22:53:49.427Z,61.84
2023-03-29T22:56:17.701Z,61.96
2023-03-29T22:58:45.762Z,62.83
2023-03-29T23:01:13.692Z,64.66
2023-03-29T23:03:41.730Z,63.11
2023-03-29T23:06:09.308Z,62.27
2023-03-29T23:08:36.849Z,62.25
2023-03-29T23:11:05.170Z,61.76
2023-03-29T23:13:33.499Z,62.27
2023-03-29T23:16:03.632Z,63.00
2023-03-29T23:18:34.942Z,63.45
2023-03-29T23:21:05.672Z,64.22
2023-03-29T23:23:34.044Z,65.32
2023-03-29T23:26:02.502Z,65.18
2023-03-29T23:28:31.456Z,64.80
2023-03-29T23:31:05.966Z,65.41
2023-03-29T23:33:35.927Z,66.29
2023-03-29T23:36:07.782Z,66.77
2023-03-29T23:38:38.737Z,66.94
2023-03-29T23:41:10.907Z,67.73
2023-03-29T23:43:43.977Z,67.49
2023-03-29T23:46:15.651Z,66.60
2023-03-29T23:48:50.806Z,66.90
2023-03-29T23:51:23.041Z,66.50
2023-03-29T23:53:51.424Z,66.23
2023-03-29T23:56:18.930Z,66.70
2023-03-29T23:58:46.780Z,66.50
